createdAt,value
2018-08-28T00:01:36.757Z,3.07
2018-08-28T00:04:05.008Z,3.20
2018-08-28T00:06:33.298Z,3.30
2018-08-28T00:09:01.574Z,3.10
2018-08-28T00:11:29.805Z,2.57
2018-08-28T00:13:58.865Z,2.40
2018-08-28T00:16:27.133Z,2.33
2018-08-28T00:18:55.433Z,2.63
2018-08-28T00:21:23.688Z,2.47
2018-08-28T00:23:52.748Z,2.63
2018-08-28T00:26:21.036Z,2.40
2018-08-28T00:28:49.329Z,2.30
2018-08-28T00:31:17.548Z,2.50
2018-08-28T00:33:46.587Z,2.60
2018-08-28T00:36:14.861Z,2.37
2018-08-28T00:38:43.117Z,2.67
2018-08-28T00:41:11.402Z,2.43
2018-08-28T00:43:39.678Z,2.70
2018-08-28T00:46:07.913Z,2.67
2018-08-28T00:48:36.944Z,2.67
2018-08-28T00:51:05.426Z,3.03
2018-08-28T00:53:33.681Z,3.10
2018-08-28T00:56:01.967Z,2.90
2018-08-28T00:58:30.252Z,3.00
2018-08-28T01:00:58.510Z,3.17
2018-08-28T01:03:26.802Z,2.77
2018-08-28T01:05:55.085Z,2.90
2018-08-28T01:08:23.366Z,3.30
2018-08-28T01:10:51.613Z,2.50
2018-08-28T01:13:19.889Z,2.73
2018-08-28T01:15:48.152Z,2.63
2018-08-28T01:18:17.194Z,2.93
2018-08-28T01:20:45.473Z,3.10
2018-08-28T01:23:13.734Z,3.00
2018-08-28T01:25:42.022Z,3.37
2018-08-28T01:28:10.267Z,2.97
2018-08-28T01:30:38.529Z,3.03
2018-08-28T01:33:06.838Z,3.60
2018-08-28T01:35:35.106Z,3.50
2018-08-28T01:38:03.426Z,3.17
2018-08-28T01:40:31.686Z,3.10
2018-08-28T01:43:00.682Z,3.33
2018-08-28T01:45:28.941Z,3.00
2018-08-28T01:47:57.229Z,2.90
2018-08-28T01:50:25.521Z,2.73
2018-08-28T01:52:53.775Z,3.30
2018-08-28T01:55:22.014Z,3.37
2018-08-28T01:57:50.294Z,3.90
2018-08-28T02:00:18.556Z,2.70
2018-08-28T02:02:46.822Z,3.13
2018-08-28T02:05:15.094Z,2.93
2018-08-28T02:07:43.350Z,3.10
2018-08-28T02:10:12.359Z,3.37
2018-08-28T02:12:40.624Z,3.57
2018-08-28T02:15:09.661Z,3.87
2018-08-28T02:17:37.963Z,3.57
2018-08-28T02:20:06.218Z,3.17
2018-08-28T02:22:34.479Z,3.40
2018-08-28T02:25:02.765Z,3.27
2018-08-28T02:27:31.022Z,3.60
2018-08-28T02:29:59.300Z,3.07
2018-08-28T02:32:27.547Z,3.60
2018-08-28T02:34:56.214Z,3.20
2018-08-28T02:37:24.470Z,3.37
2018-08-28T02:39:52.726Z,3.77
2018-08-28T02:42:21.013Z,4.80
2018-08-28T02:44:49.301Z,3.53
2018-08-28T02:47:17.566Z,3.27
2018-08-28T02:49:45.825Z,3.37
2018-08-28T02:52:14.109Z,3.27
2018-08-28T02:54:42.397Z,3.63
2018-08-28T02:57:10.650Z,3.40
2018-08-28T02:59:38.929Z,3.33
2018-08-28T03:02:07.205Z,3.83
2018-08-28T03:04:35.504Z,3.43
2018-08-28T03:07:03.745Z,3.53
2018-08-28T03:09:32.036Z,3.60
2018-08-28T03:12:00.290Z,3.70
2018-08-28T03:14:28.581Z,3.50
2018-08-28T03:16:56.845Z,3.53
2018-08-28T03:19:25.091Z,3.40
2018-08-28T03:21:53.352Z,3.63
2018-08-28T03:24:22.379Z,3.30
2018-08-28T03:26:50.658Z,3.43
2018-08-28T03:29:18.917Z,2.80
2018-08-28T03:31:47.186Z,2.80
2018-08-28T03:34:15.480Z,2.40
2018-08-28T03:36:43.798Z,2.90
2018-08-28T03:39:12.052Z,2.90
2018-08-28T03:41:40.313Z,3.10
2018-08-28T03:44:08.555Z,2.97
2018-08-28T03:46:37.123Z,2.80
2018-08-28T03:49:06.151Z,2.10
2018-08-28T03:51:34.423Z,2.50
2018-08-28T03:54:02.698Z,1.90
2018-08-28T03:56:31.001Z,2.03
2018-08-28T03:58:59.238Z,2.20
2018-08-28T04:01:27.517Z,1.80
2018-08-28T04:03:55.772Z,1.50
2018-08-28T04:06:24.802Z,1.70
2018-08-28T04:08:53.129Z,2.67
2018-08-28T04:11:21.381Z,2.00
2018-08-28T04:13:50.527Z,1.63
2018-08-28T04:16:18.819Z,2.67
2018-08-28T04:18:47.070Z,2.03
2018-08-28T04:21:16.099Z,1.83
2018-08-28T04:23:44.356Z,2.13
2018-08-28T04:26:12.634Z,2.20
2018-08-28T04:28:40.886Z,2.20
2018-08-28T04:31:09.906Z,2.13
2018-08-28T04:33:38.183Z,2.50
2018-08-28T04:36:06.430Z,2.20
2018-08-28T04:38:34.679Z,2.63
2018-08-28T04:41:02.949Z,2.00
2018-08-28T04:43:31.245Z,2.10
2018-08-28T04:45:59.506Z,2.20
2018-08-28T04:48:27.836Z,2.40
2018-08-28T04:50:56.025Z,2.30
2018-08-28T04:53:24.341Z,3.00
2018-08-28T04:55:53.405Z,2.60
2018-08-28T04:58:22.423Z,2.50
2018-08-28T05:00:51.519Z,2.13
2018-08-28T05:03:19.723Z,1.87
2018-08-28T05:05:48.020Z,2.43
2018-08-28T05:08:16.259Z,2.43
2018-08-28T05:10:45.275Z,2.37
2018-08-28T05:13:13.568Z,3.07
2018-08-28T05:15:41.836Z,2.70
2018-08-28T05:18:10.123Z,2.33
2018-08-28T05:20:38.385Z,2.13
2018-08-28T05:23:06.650Z,2.43
2018-08-28T05:25:34.927Z,1.93
2018-08-28T05:28:03.184Z,1.50
2018-08-28T05:30:31.570Z,1.73
2018-08-28T05:32:59.762Z,1.90
2018-08-28T05:35:28.011Z,1.47
2018-08-28T05:37:56.265Z,1.60
2018-08-28T05:40:24.525Z,1.83
2018-08-28T05:42:52.798Z,2.00
2018-08-28T05:45:21.053Z,2.50
2018-08-28T05:47:50.081Z,3.20
2018-08-28T05:50:19.126Z,2.87
2018-08-28T05:52:47.357Z,2.77
2018-08-28T05:55:16.389Z,2.73
2018-08-28T05:57:44.634Z,3.17
2018-08-28T06:00:12.952Z,3.77
2018-08-28T06:02:41.232Z,4.07
2018-08-28T06:05:09.495Z,4.60
2018-08-28T06:07:37.758Z,5.00
2018-08-28T06:10:06.042Z,5.30
2018-08-28T06:12:34.297Z,5.80
2018-08-28T06:15:04.037Z,7.00
2018-08-28T06:17:32.373Z,7.50
2018-08-28T06:20:00.639Z,8.00
2018-08-28T06:22:29.654Z,7.70
2018-08-28T06:24:57.939Z,7.53
2018-08-28T06:27:26.210Z,7.67
2018-08-28T06:29:54.466Z,7.57
2018-08-28T06:32:22.723Z,7.40
2018-08-28T06:34:51.810Z,7.10
2018-08-28T06:37:20.163Z,7.93
2018-08-28T06:39:48.394Z,6.97
2018-08-28T06:42:16.684Z,7.23
2018-08-28T06:44:44.915Z,7.87
2018-08-28T06:47:13.983Z,7.47
2018-08-28T06:49:42.352Z,7.23
2018-08-28T06:52:10.617Z,6.50
2018-08-28T06:54:38.884Z,7.30
2018-08-28T06:57:07.140Z,6.60
2018-08-28T06:59:35.475Z,7.30
2018-08-28T07:02:03.767Z,6.93
2018-08-28T07:04:32.816Z,7.43
2018-08-28T07:07:01.181Z,7.50
2018-08-28T07:09:29.422Z,7.47
2018-08-28T07:11:57.686Z,6.87
2018-08-28T07:14:26.795Z,6.97
2018-08-28T07:16:55.836Z,7.03
2018-08-28T07:19:24.098Z,6.70
2018-08-28T07:21:52.442Z,6.47
2018-08-28T07:24:21.477Z,6.60
2018-08-28T07:26:49.753Z,6.60
2018-08-28T07:29:18.023Z,6.97
2018-08-28T07:31:46.335Z,6.67
2018-08-28T07:34:14.872Z,6.40
2018-08-28T07:36:43.140Z,6.17
2018-08-28T07:39:11.434Z,6.47
2018-08-28T07:41:39.714Z,6.40
2018-08-28T07:44:07.977Z,5.97
2018-08-28T07:46:36.232Z,6.27
2018-08-28T07:49:04.735Z,6.10
2018-08-28T07:51:32.997Z,6.83
2018-08-28T07:54:01.428Z,6.50
2018-08-28T07:56:30.438Z,6.10
2018-08-28T07:58:59.486Z,5.37
2018-08-28T08:01:27.859Z,6.27
2018-08-28T08:03:56.063Z,6.37
2018-08-28T08:06:24.316Z,6.53
2018-08-28T08:08:52.602Z,6.33
2018-08-28T08:11:20.893Z,6.10
2018-08-28T08:13:49.932Z,5.67
2018-08-28T08:16:18.348Z,6.00
2018-08-28T08:18:46.496Z,6.13
2018-08-28T08:21:14.793Z,6.90
2018-08-28T08:23:43.058Z,6.43
2018-08-28T08:26:11.329Z,5.50
2018-08-28T08:28:40.379Z,5.77
2018-08-28T08:31:08.645Z,5.77
2018-08-28T08:33:37.726Z,5.73
2018-08-28T08:36:05.997Z,6.23
2018-08-28T08:38:34.256Z,5.50
2018-08-28T08:41:02.590Z,5.83
2018-08-28T08:43:30.873Z,5.70
2018-08-28T08:45:59.121Z,5.97
2018-08-28T08:48:27.390Z,5.63
2018-08-28T08:50:56.587Z,5.10
2018-08-28T08:53:25.583Z,5.20
2018-08-28T08:55:53.838Z,4.90
2018-08-28T08:58:22.142Z,5.73
2018-08-28T09:00:50.440Z,5.60
2018-08-28T09:03:18.708Z,5.50
2018-08-28T09:05:46.983Z,5.27
2018-08-28T09:10:40.187Z,5.07
2018-08-28T09:13:08.424Z,4.93
2018-08-28T09:15:36.794Z,5.60
2018-08-28T09:18:05.068Z,5.10
2018-08-28T09:20:33.325Z,5.23
2018-08-28T09:23:02.366Z,5.00
2018-08-28T09:25:30.619Z,6.00
2018-08-28T09:27:59.210Z,4.93
2018-08-28T09:30:27.465Z,4.40
2018-08-28T09:32:55.712Z,4.97
2018-08-28T09:35:24.035Z,4.67
2018-08-28T09:37:52.296Z,4.27
2018-08-28T09:40:20.917Z,4.50
2018-08-28T09:42:49.171Z,4.77
2018-08-28T09:45:17.430Z,4.83
2018-08-28T09:47:45.700Z,5.43
2018-08-28T09:50:14.060Z,4.87
2018-08-28T09:52:42.280Z,4.70
2018-08-28T09:55:10.556Z,4.47
2018-08-28T09:57:38.876Z,4.77
2018-08-28T10:00:07.095Z,5.00
2018-08-28T10:02:35.343Z,5.20
2018-08-28T10:05:04.366Z,4.90
2018-08-28T10:07:32.646Z,4.33
2018-08-28T10:10:00.903Z,4.87
2018-08-28T10:12:29.176Z,4.97
2018-08-28T10:14:57.458Z,4.33
2018-08-28T10:17:25.759Z,4.63
2018-08-28T10:19:54.019Z,4.50
2018-08-28T10:22:22.287Z,5.10
2018-08-28T10:24:50.574Z,4.83
2018-08-28T10:27:18.880Z,5.00
2018-08-28T10:29:47.216Z,4.70
2018-08-28T10:32:15.462Z,4.87
2018-08-28T10:34:44.508Z,4.77
2018-08-28T10:37:12.829Z,4.30
2018-08-28T10:39:41.860Z,4.67
2018-08-28T10:42:10.121Z,5.27
2018-08-28T10:44:38.404Z,5.47
2018-08-28T10:47:06.702Z,4.87
2018-08-28T10:49:34.981Z,4.47
2018-08-28T10:52:03.264Z,5.37
2018-08-28T10:54:31.557Z,5.60
2018-08-28T10:56:59.841Z,5.03
2018-08-28T10:59:28.865Z,4.90
2018-08-28T11:01:57.139Z,5.63
2018-08-28T11:04:25.440Z,5.43
2018-08-28T11:06:54.415Z,5.77
2018-08-28T11:09:22.703Z,5.60
2018-08-28T11:11:50.967Z,5.57
2018-08-28T11:14:19.227Z,5.27
2018-08-28T11:16:47.512Z,5.57
2018-08-28T11:19:15.756Z,6.00
2018-08-28T11:21:44.780Z,5.87
2018-08-28T11:24:13.069Z,5.67
2018-08-28T11:26:41.365Z,6.07
2018-08-28T11:29:10.352Z,5.93
2018-08-28T11:31:39.225Z,5.33
2018-08-28T11:34:07.482Z,6.00
2018-08-28T11:36:36.588Z,5.97
2018-08-28T11:39:04.872Z,5.47
2018-08-28T11:41:33.138Z,6.13
2018-08-28T11:44:01.453Z,6.00
2018-08-28T11:46:29.691Z,6.33
2018-08-28T11:48:57.983Z,5.67
2018-08-28T11:51:26.251Z,5.43
2018-08-28T11:53:54.507Z,5.87
2018-08-28T11:56:22.795Z,6.13
2018-08-28T11:58:51.063Z,6.13
2018-08-28T12:01:19.323Z,5.43
2018-08-28T12:03:47.615Z,6.20
2018-08-28T12:06:15.909Z,6.00
2018-08-28T12:08:44.178Z,5.97
2018-08-28T12:11:12.466Z,5.87
2018-08-28T12:13:40.772Z,5.90
2018-08-28T12:16:09.052Z,6.00
2018-08-28T12:18:37.309Z,5.70
2018-08-28T12:21:05.641Z,5.37
2018-08-28T12:23:34.632Z,6.27
2018-08-28T12:26:02.931Z,6.10
2018-08-28T12:28:31.225Z,5.50
2018-08-28T12:30:59.507Z,5.17
2018-08-28T12:33:27.800Z,5.53
2018-08-28T12:35:56.114Z,5.60
2018-08-28T12:38:24.371Z,5.80
2018-08-28T12:40:52.643Z,5.93
2018-08-28T12:43:20.923Z,5.10
2018-08-28T12:45:49.212Z,5.30
2018-08-28T12:48:17.456Z,5.70
2018-08-28T12:50:46.507Z,5.63
2018-08-28T12:53:14.789Z,5.47
2018-08-28T12:55:43.072Z,6.43
2018-08-28T12:58:11.375Z,5.43
2018-08-28T13:00:39.747Z,6.07
2018-08-28T13:03:08.705Z,5.80
2018-08-28T13:05:36.958Z,5.47
2018-08-28T13:08:05.248Z,5.80
2018-08-28T13:10:33.532Z,6.37
2018-08-28T13:13:01.819Z,5.57
2018-08-28T13:15:30.094Z,5.83
2018-08-28T13:17:58.361Z,5.43
2018-08-28T13:20:26.636Z,5.97
2018-08-28T13:22:54.919Z,6.00
2018-08-28T13:25:23.263Z,5.93
2018-08-28T13:27:51.490Z,5.83
2018-08-28T13:30:19.824Z,6.27
2018-08-28T13:32:48.104Z,6.97
2018-08-28T13:35:16.416Z,6.30
2018-08-28T13:37:44.733Z,6.00
2018-08-28T13:40:13.059Z,6.20
2018-08-28T13:42:41.324Z,5.53
2018-08-28T13:45:09.649Z,6.40
2018-08-28T13:47:46.596Z,6.23
2018-08-28T13:50:14.888Z,6.63
2018-08-28T13:52:44.176Z,6.87
2018-08-28T13:55:13.196Z,6.40
2018-08-28T13:57:42.329Z,6.50
2018-08-28T14:00:11.664Z,6.80
2018-08-28T14:02:40.631Z,6.13
2018-08-28T14:05:22.645Z,6.87
2018-08-28T14:07:50.944Z,6.73
2018-08-28T14:10:19.282Z,6.90
2018-08-28T14:12:47.576Z,6.43
2018-08-28T14:15:16.633Z,6.77
2018-08-28T14:17:44.932Z,6.43
2018-08-28T14:20:13.205Z,6.47
2018-08-28T14:22:41.727Z,6.80
2018-08-28T14:25:10.068Z,6.87
2018-08-28T14:27:38.382Z,6.40
2018-08-28T14:30:07.455Z,6.30
2018-08-28T14:32:36.821Z,6.70
2018-08-28T14:35:05.076Z,6.57
2018-08-28T14:37:33.349Z,6.70
2018-08-28T14:40:01.655Z,5.83
2018-08-28T14:42:30.069Z,6.07
2018-08-28T14:44:59.026Z,6.40
2018-08-28T14:47:27.326Z,6.27
2018-08-28T14:49:55.684Z,6.47
2018-08-28T14:52:23.870Z,6.40
2018-08-28T14:54:52.156Z,6.93
2018-08-28T14:57:21.212Z,6.10
2018-08-28T14:59:49.518Z,6.87
2018-08-28T15:02:17.895Z,6.47
2018-08-28T15:04:46.226Z,6.70
2018-08-28T15:07:14.562Z,6.97
2018-08-28T15:09:43.606Z,7.00
2018-08-28T15:12:11.925Z,6.80
2018-08-28T15:14:41.027Z,6.23
2018-08-28T15:17:10.056Z,6.30
2018-08-28T15:19:38.323Z,6.57
2018-08-28T15:22:06.589Z,6.70
2018-08-28T15:24:34.881Z,6.13
2018-08-28T15:27:03.170Z,6.50
2018-08-28T15:29:31.549Z,6.47
2018-08-28T15:31:59.840Z,6.70
2018-08-28T15:34:29.597Z,6.90
2018-08-28T15:36:58.051Z,6.60
2018-08-28T15:39:26.334Z,7.50
2018-08-28T15:41:54.691Z,14.40
2018-08-28T15:44:23.196Z,11.50
2018-08-28T15:46:52.260Z,7.83
2018-08-28T15:49:20.530Z,7.33
2018-08-28T15:51:48.951Z,7.50
2018-08-28T15:54:17.159Z,6.97
2018-08-28T15:56:45.468Z,7.20
2018-08-28T15:59:13.770Z,7.20
2018-08-28T16:01:42.810Z,7.60
2018-08-28T16:04:11.450Z,7.40
2018-08-28T16:06:40.831Z,7.07
2018-08-28T16:09:09.092Z,7.73
2018-08-28T16:11:37.382Z,6.90
2018-08-28T16:14:05.668Z,7.23
2018-08-28T16:16:34.892Z,7.70
2018-08-28T16:19:03.162Z,7.10
2018-08-28T16:21:31.572Z,6.90
2018-08-28T16:24:00.665Z,6.90
2018-08-28T16:26:28.937Z,7.57
2018-08-28T16:28:57.232Z,7.00
2018-08-28T16:31:25.612Z,7.07
2018-08-28T16:33:53.957Z,7.33
2018-08-28T16:36:22.289Z,7.13
2018-08-28T16:38:51.320Z,7.17
2018-08-28T16:41:19.582Z,7.20
2018-08-28T16:43:47.880Z,7.67
2018-08-28T16:46:16.214Z,7.03
2018-08-28T16:48:44.437Z,7.63
2018-08-28T16:51:12.777Z,7.10
2018-08-28T16:53:41.827Z,7.73
2018-08-28T16:56:10.075Z,7.10
2018-08-28T16:58:38.357Z,7.00
2018-08-28T17:01:06.646Z,7.53
2018-08-28T17:03:35.021Z,7.13
2018-08-28T17:06:03.364Z,7.33
2018-08-28T17:08:32.556Z,7.00
2018-08-28T17:11:00.870Z,7.33
2018-08-28T17:13:29.157Z,6.87
2018-08-28T17:15:57.487Z,6.73
2018-08-28T17:18:25.792Z,6.90
2018-08-28T17:20:54.095Z,6.63
2018-08-28T17:23:22.366Z,7.03
2018-08-28T17:25:50.664Z,6.97
2018-08-28T17:28:19.706Z,6.67
2018-08-28T17:30:48.023Z,6.97
2018-08-28T17:33:16.271Z,6.30
2018-08-28T17:35:44.490Z,6.87
2018-08-28T17:38:13.553Z,6.77
2018-08-28T17:40:41.811Z,6.70
2018-08-28T17:43:10.081Z,7.00
2018-08-28T17:45:38.349Z,6.13
2018-08-28T17:48:06.635Z,7.50
2018-08-28T17:50:35.661Z,6.93
2018-08-28T17:53:04.240Z,7.17
2018-08-28T17:55:32.528Z,6.77
2018-08-28T17:58:00.797Z,6.47
2018-08-28T18:00:29.837Z,7.30
2018-08-28T18:02:58.108Z,7.20
2018-08-28T18:05:26.379Z,6.80
2018-08-28T18:07:54.735Z,7.23
2018-08-28T18:10:23.199Z,6.63
2018-08-28T18:12:52.283Z,7.73
2018-08-28T18:15:20.545Z,7.40
2018-08-28T18:17:48.903Z,7.07
2018-08-28T18:20:17.172Z,6.63
2018-08-28T18:22:45.446Z,7.33
2018-08-28T18:25:13.714Z,6.97
2018-08-28T18:27:42.025Z,7.27
2018-08-28T18:30:10.298Z,7.40
2018-08-28T18:32:38.579Z,7.17
2018-08-28T18:35:06.892Z,7.60
2018-08-28T18:37:35.918Z,7.87
2018-08-28T18:40:04.187Z,7.13
2018-08-28T18:42:32.499Z,6.60
2018-08-28T18:45:00.789Z,6.93
2018-08-28T18:47:29.107Z,6.97
2018-08-28T18:49:57.463Z,7.30
2018-08-28T18:52:26.496Z,7.13
2018-08-28T18:54:54.805Z,6.53
2018-08-28T18:57:23.090Z,6.90
2018-08-28T18:59:52.134Z,6.93
2018-08-28T19:02:20.391Z,7.60
2018-08-28T19:04:48.678Z,6.97
2018-08-28T19:07:16.972Z,6.80
2018-08-28T19:09:45.254Z,7.20
2018-08-28T19:12:13.607Z,7.03
2018-08-28T19:14:41.954Z,6.90
2018-08-28T19:17:10.166Z,7.67
2018-08-28T19:19:38.454Z,7.30
2018-08-28T19:24:41.335Z,6.90
2018-08-28T19:27:09.625Z,6.80
2018-08-28T19:29:37.911Z,6.53
2018-08-28T19:32:06.183Z,6.27
2018-08-28T19:34:34.458Z,6.77
2018-08-28T19:37:02.762Z,7.13
2018-08-28T19:39:31.033Z,7.20
2018-08-28T19:41:59.280Z,7.40
2018-08-28T19:44:27.569Z,7.23
2018-08-28T19:46:55.827Z,6.90
2018-08-28T19:49:24.142Z,7.00
2018-08-28T19:51:53.203Z,6.97
2018-08-28T19:54:21.516Z,6.97
2018-08-28T19:56:50.588Z,6.73
2018-08-28T19:59:18.828Z,6.53
2018-08-28T20:01:47.091Z,6.83
2018-08-28T20:04:15.390Z,6.27
2018-08-28T20:06:43.698Z,6.57
2018-08-28T20:09:11.989Z,6.87
2018-08-28T20:11:41.052Z,6.77
2018-08-28T20:14:09.315Z,6.73
2018-08-28T20:16:37.712Z,6.37
2018-08-28T20:19:05.978Z,6.80
2018-08-28T20:21:34.227Z,6.40
2018-08-28T20:24:02.514Z,6.60
2018-08-28T20:26:30.762Z,6.60
2018-08-28T20:28:59.055Z,6.80
2018-08-28T20:31:27.374Z,6.53
2018-08-28T20:33:55.643Z,6.10
2018-08-28T20:36:23.920Z,6.40
2018-08-28T20:38:52.215Z,6.80
2018-08-28T20:41:21.298Z,6.50
2018-08-28T20:43:49.608Z,6.80
2018-08-28T20:46:17.902Z,7.13
2018-08-28T20:48:46.157Z,6.83
2018-08-28T20:51:14.446Z,7.03
2018-08-28T20:53:42.799Z,7.10
2018-08-28T20:56:10.975Z,6.97
2018-08-28T20:58:39.261Z,6.73
2018-08-28T21:01:07.538Z,7.03
2018-08-28T21:03:35.796Z,7.27
2018-08-28T21:06:04.103Z,7.20
2018-08-28T21:08:32.377Z,7.40
2018-08-28T21:11:00.650Z,6.57
2018-08-28T21:13:28.927Z,6.77
2018-08-28T21:15:57.207Z,6.67
2018-08-28T21:18:25.455Z,7.03
2018-08-28T21:20:53.726Z,7.00
2018-08-28T21:23:21.974Z,6.27
2018-08-28T21:25:50.987Z,6.37
2018-08-28T21:28:19.252Z,6.73
2018-08-28T21:30:48.275Z,6.53
2018-08-28T21:33:16.555Z,6.83
2018-08-28T21:35:44.892Z,6.83
2018-08-28T21:38:13.150Z,6.63
2018-08-28T21:40:41.419Z,6.70
2018-08-28T21:43:11.208Z,6.87
2018-08-28T21:45:39.474Z,6.47
2018-08-28T21:48:07.775Z,6.70
2018-08-28T21:50:36.016Z,6.80
2018-08-28T21:53:04.326Z,6.53
2018-08-28T21:55:32.632Z,6.77
2018-08-28T21:58:00.884Z,6.57
2018-08-28T22:00:29.161Z,6.27
2018-08-28T22:02:57.444Z,6.87
2018-08-28T22:05:25.750Z,6.90
2018-08-28T22:07:54.019Z,6.53
2018-08-28T22:10:22.334Z,6.50
2018-08-28T22:12:50.643Z,5.90
2018-08-28T22:15:18.933Z,6.17
2018-08-28T22:17:48.022Z,6.33
2018-08-28T22:20:16.291Z,6.87
2018-08-28T22:22:44.584Z,6.60
2018-08-28T22:25:13.588Z,6.20
2018-08-28T22:27:42.656Z,5.93
2018-08-28T22:30:10.985Z,6.20
2018-08-28T22:32:39.246Z,6.20
2018-08-28T22:35:07.528Z,6.37
2018-08-28T22:37:35.806Z,6.20
2018-08-28T22:40:04.071Z,5.90
2018-08-28T22:42:32.334Z,6.67
2018-08-28T22:45:00.620Z,6.23
2018-08-28T22:47:28.888Z,6.13
2018-08-28T22:49:57.161Z,6.23
2018-08-28T22:52:25.416Z,6.60
2018-08-28T22:54:54.471Z,7.30
2018-08-28T22:57:23.715Z,6.23
2018-08-28T22:59:52.771Z,6.90
2018-08-28T23:02:21.050Z,6.97
2018-08-28T23:04:49.309Z,6.57
2018-08-28T23:07:17.594Z,6.10
2018-08-28T23:09:45.847Z,6.77
2018-08-28T23:12:14.117Z,6.23
2018-08-28T23:14:42.390Z,6.27
2018-08-28T23:17:10.668Z,5.53
2018-08-28T23:19:38.945Z,6.17
2018-08-28T23:22:07.239Z,6.03
2018-08-28T23:24:35.473Z,6.30
2018-08-28T23:27:03.781Z,6.23
2018-08-28T23:29:32.046Z,5.90
2018-08-28T23:32:00.358Z,6.63
2018-08-28T23:34:28.638Z,5.67
2018-08-28T23:36:56.923Z,6.57
2018-08-28T23:39:25.225Z,6.03
2018-08-28T23:41:53.485Z,6.30
2018-08-28T23:44:22.515Z,6.90
2018-08-28T23:46:50.784Z,6.47
2018-08-28T23:49:19.048Z,6.20
2018-08-28T23:51:47.298Z,6.03
2018-08-28T23:54:16.333Z,6.80
2018-08-28T23:56:44.621Z,6.50
2018-08-28T23:59:12.896Z,6.63
